Time;durP1;ratioP1;P1;durP2;ratioP2;P2;SDS_P1;SDS_P2;PMS_P1;PMS_P2;Temp;Humidity;BMP_temperature;BMP_pressure;BME280_temperature;BME280_humidity;BME280_pressure;Samples;Min_cycle;Max_cycle;Signal;HPM_P1;HPM_P2
2023/05/31 00:01:31;;;;;;;;;;;19.90;54.10;;;;;;5061387;28;20175;-80
2023/05/31 00:03:56;;;;;;;;;;;19.90;54.10;;;;;;5044268;28;19908;-80
2023/05/31 00:06:22;;;;;;;;;;;19.90;54.20;;;;;;5060466;28;19931;-80
2023/05/31 00:08:50;;;;;;;;;;;19.80;54.10;;;;;;5058740;28;19920;-80
2023/05/31 00:11:15;;;;;;;;;;;19.80;54.10;;;;;;5061169;28;20274;-80
2023/05/31 00:13:41;;;;;;;;;;;19.80;54.10;;;;;;5079804;28;19919;-80
2023/05/31 00:16:07;;;;;;;;;;;19.80;54.10;;;;;;5079394;28;19919;-80
2023/05/31 00:18:35;;;;;;;;;;;19.80;54.10;;;;;;5061906;28;19913;-80
2023/05/31 00:21:01;;;;;;;;;;;19.80;54.20;;;;;;5063360;28;20193;-80
2023/05/31 00:23:26;;;;;;;;;;;19.80;54.20;;;;;;5080807;28;19999;-80
2023/05/31 00:25:52;;;;;;;;;;;19.70;54.10;;;;;;5081351;28;19936;-80
2023/05/31 00:28:24;;;;;;;;;;;19.70;54.20;;;;;;5084312;28;19951;-80
2023/05/31 00:30:50;;;;;;;;;;;19.70;54.20;;;;;;5080139;28;20428;-80
2023/05/31 00:33:15;;;;;;;;;;;19.70;54.20;;;;;;5080078;28;19955;-80
2023/05/31 00:35:41;;;;;;;;;;;19.70;54.20;;;;;;5079998;28;19948;-80
2023/05/31 00:38:09;;;;;;;;;;;19.70;54.20;;;;;;5079992;28;19912;-80
2023/05/31 00:40:34;;;;;;;;;;;19.70;54.20;;;;;;5080081;28;19915;-80
2023/05/31 00:43:00;;;;;;;;;;;19.70;54.20;;;;;;5080311;28;19909;-80
2023/05/31 00:45:25;;;;;;;;;;;19.70;54.20;;;;;;5079924;28;19908;-80
2023/05/31 00:47:52;;;;;;;;;;;19.60;54.20;;;;;;5078703;28;19951;-80
2023/05/31 00:50:18;;;;;;;;;;;19.60;54.20;;;;;;5061563;28;19943;-80
2023/05/31 00:52:49;;;;;;;;;;;19.60;54.30;;;;;;5077948;28;19944;-79
2023/05/31 00:55:15;;;;;;;;;;;19.60;54.30;;;;;;5061225;28;19908;-80
2023/05/31 00:57:41;;;;;;;;;;;19.60;54.30;;;;;;5061570;28;19909;-80
2023/05/31 01:00:08;;;;;;;;;;;19.60;54.30;;;;;;5077910;28;19916;-79
2023/05/31 01:02:34;;;;;;;;;;;19.60;54.30;;;;;;5062148;28;20306;-80
2023/05/31 01:05:01;;;;;;;;;;;19.60;54.30;;;;;;5078115;28;19913;-79
2023/05/31 01:07:27;;;;;;;;;;;19.50;54.20;;;;;;5060856;28;19997;-79
2023/05/31 01:09:53;;;;;;;;;;;19.50;54.20;;;;;;5075540;28;19924;-80
2023/05/31 01:12:22;;;;;;;;;;;19.50;54.20;;;;;;5042380;28;19908;-80
2023/05/31 01:14:55;;;;;;;;;;;19.60;54.30;;;;;;5059413;28;19913;-80
2023/05/31 01:17:30;;;;;;;;;;;19.50;54.20;;;;;;5042819;28;19909;-80
2023/05/31 01:20:00;;;;;;;;;;;19.50;54.20;;;;;;5042124;28;19944;-80
2023/05/31 01:22:29;;;;;;;;;;;19.50;54.20;;;;;;5042158;28;19908;-79
2023/05/31 01:27:25;;;;;;;;;;;19.50;54.20;;;;;;5054649;28;19952;-12
2023/05/31 01:29:52;;;;;;;;;;;19.50;54.20;;;;;;5057234;28;20094;-12
2023/05/31 01:32:20;;;;;;;;;;;19.50;54.30;;;;;;5058310;28;19908;-11
2023/05/31 01:34:52;;;;;;;;;;;19.40;54.30;;;;;;5040581;28;19995;-12
2023/05/31 01:37:17;;;;;;;;;;;19.40;54.30;;;;;;5040672;28;20561;-11
2023/05/31 01:39:43;;;;;;;;;;;19.40;54.30;;;;;;5058577;28;19976;-12
2023/05/31 01:42:09;;;;;;;;;;;19.40;54.30;;;;;;5041126;28;20000;-11
2023/05/31 01:44:36;;;;;;;;;;;19.40;54.30;;;;;;5058746;28;20278;-11
2023/05/31 01:47:02;;;;;;;;;;;19.40;54.30;;;;;;5058521;28;19909;-11
2023/05/31 01:49:28;;;;;;;;;;;19.40;54.30;;;;;;5058677;28;19919;-11
2023/05/31 01:51:54;;;;;;;;;;;19.40;54.30;;;;;;5058794;28;19974;-12
2023/05/31 01:54:23;;;;;;;;;;;19.40;54.30;;;;;;5059478;28;19919;-11
2023/05/31 01:56:49;;;;;;;;;;;19.40;54.40;;;;;;5058698;28;19999;-11
2023/05/31 01:59:15;;;;;;;;;;;19.30;54.40;;;;;;5059133;28;19924;-11
2023/05/31 02:01:41;;;;;;;;;;;19.30;54.40;;;;;;5058622;28;19909;-11
2023/05/31 02:04:07;;;;;;;;;;;19.30;54.40;;;;;;5041398;28;19974;-11
2023/05/31 02:06:36;;;;;;;;;;;19.30;54.40;;;;;;5040426;28;19999;-11
2023/05/31 02:09:02;;;;;;;;;;;19.30;54.40;;;;;;5041772;28;20003;-11
2023/05/31 02:11:28;;;;;;;;;;;19.30;54.40;;;;;;5058895;28;19985;-11
2023/05/31 02:13:55;;;;;;;;;;;19.30;54.40;;;;;;5059300;28;19909;-11
2023/05/31 02:16:21;;;;;;;;;;;19.30;54.40;;;;;;5040805;28;19909;-11
2023/05/31 02:18:46;;;;;;;;;;;19.30;54.50;;;;;;5059086;28;19924;-11
2023/05/31 02:21:12;;;;;;;;;;;19.30;54.50;;;;;;5058576;28;20007;-11
2023/05/31 02:23:40;;;;;;;;;;;19.20;54.40;;;;;;5058535;28;20014;-11
2023/05/31 02:26:05;;;;;;;;;;;19.30;54.50;;;;;;5058120;28;19916;-11
2023/05/31 02:28:31;;;;;;;;;;;19.20;54.40;;;;;;5040472;28;20007;-11
2023/05/31 02:30:57;;;;;;;;;;;19.20;54.50;;;;;;5057757;28;20079;-11
2023/05/31 02:33:33;;;;;;;;;;;19.20;54.50;;;;;;5040985;28;19936;-11
2023/05/31 02:35:58;;;;;;;;;;;19.20;54.50;;;;;;5057914;28;19909;-11
2023/05/31 02:38:24;;;;;;;;;;;19.10;54.50;;;;;;5057795;28;20410;-11
2023/05/31 02:40:50;;;;;;;;;;;19.10;54.50;;;;;;5058100;28;19909;-11
2023/05/31 02:43:15;;;;;;;;;;;19.10;54.50;;;;;;5057981;28;19951;-11
2023/05/31 02:45:41;;;;;;;;;;;19.10;54.50;;;;;;5058173;28;19919;-11
2023/05/31 02:48:07;;;;;;;;;;;19.10;54.50;;;;;;5057751;28;20019;-11
2023/05/31 02:50:34;;;;;;;;;;;19.10;54.50;;;;;;5057957;28;19909;-11
2023/05/31 02:53:05;;;;;;;;;;;19.10;54.50;;;;;;5041214;28;19909;-11
2023/05/31 02:55:31;;;;;;;;;;;19.10;54.60;;;;;;5058086;28;20029;-11
2023/05/31 02:57:57;;;;;;;;;;;19.10;55.00;;;;;;5058007;28;20274;-11
2023/05/31 03:00:31;;;;;;;;;;;19.10;54.60;;;;;;5057977;28;19924;-11
2023/05/31 03:02:57;;;;;;;;;;;19.10;54.60;;;;;;5057526;28;19909;-11
2023/05/31 03:05:23;;;;;;;;;;;19.00;54.50;;;;;;5040071;28;20051;-11
2023/05/31 03:07:48;;;;;;;;;;;19.00;54.50;;;;;;5057372;28;20205;-11
2023/05/31 03:10:15;;;;;;;;;;;19.00;54.60;;;;;;5057384;28;20202;-11
2023/05/31 03:12:41;;;;;;;;;;;19.00;54.60;;;;;;5057722;28;20193;-11
2023/05/31 03:15:07;;;;;;;;;;;19.00;54.50;;;;;;5040856;28;20011;-11
2023/05/31 03:17:32;;;;;;;;;;;19.00;54.60;;;;;;5058247;28;20004;-11
2023/05/31 03:19:58;;;;;;;;;;;19.00;54.60;;;;;;5060474;28;19919;-11
2023/05/31 03:22:25;;;;;;;;;;;19.00;54.60;;;;;;5060723;28;20213;-11
2023/05/31 03:24:50;;;;;;;;;;;19.00;54.60;;;;;;5043714;28;19909;-11
2023/05/31 03:27:16;;;;;;;;;;;19.00;54.60;;;;;;5061363;28;19923;-11
2023/05/31 03:29:48;;;;;;;;;;;19.00;54.60;;;;;;5061094;28;19970;-11
2023/05/31 03:32:13;;;;;;;;;;;18.90;54.50;;;;;;5042378;28;19909;-11
2023/05/31 03:34:39;;;;;;;;;;;18.90;54.50;;;;;;5061471;28;19999;-11
2023/05/31 03:37:05;;;;;;;;;;;18.90;54.50;;;;;;5061378;28;19913;-11
2023/05/31 03:39:31;;;;;;;;;;;18.90;54.50;;;;;;5061351;28;19978;-11
2023/05/31 03:41:57;;;;;;;;;;;18.90;54.50;;;;;;5061901;28;19909;-11
2023/05/31 03:44:22;;;;;;;;;;;18.90;54.50;;;;;;5043693;28;19919;-11
2023/05/31 03:47:01;;;;;;;;;;;18.90;54.50;;;;;;5044025;28;20015;-11
2023/05/31 03:49:27;;;;;;;;;;;18.90;54.50;;;;;;5060988;28;19916;-11
2023/05/31 03:51:52;;;;;;;;;;;18.90;54.50;;;;;;5060890;28;19909;-11
2023/05/31 03:54:18;;;;;;;;;;;18.90;54.90;;;;;;5060822;28;19913;-11
2023/05/31 03:56:44;;;;;;;;;;;18.90;54.50;;;;;;5043506;28;19909;-11
2023/05/31 03:59:09;;;;;;;;;;;18.90;54.50;;;;;;5042866;28;19978;-11
2023/05/31 04:01:35;;;;;;;;;;;18.90;54.50;;;;;;5060602;28;20032;-11
2023/05/31 04:04:01;;;;;;;;;;;18.90;54.60;;;;;;5043291;28;19973;-11
2023/05/31 04:06:33;;;;;;;;;;;18.90;54.60;;;;;;5059810;28;19951;-11
2023/05/31 04:08:58;;;;;;;;;;;18.90;54.60;;;;;;5042914;28;20005;-11
2023/05/31 04:11:25;;;;;;;;;;;18.90;54.60;;;;;;5059696;28;19963;-11
2023/05/31 04:13:51;;;;;;;;;;;18.90;54.60;;;;;;5060270;28;19916;-11
2023/05/31 04:16:19;;;;;;;;;;;18.90;54.60;;;;;;5042617;28;20003;-11
2023/05/31 04:18:44;;;;;;;;;;;18.90;54.60;;;;;;5060280;28;20433;-11
2023/05/31 04:21:10;;;;;;;;;;;18.90;54.50;;;;;;5042344;28;19909;-11
2023/05/31 04:23:36;;;;;;;;;;;18.90;54.60;;;;;;5042546;28;20244;-11
2023/05/31 04:26:03;;;;;;;;;;;18.90;54.50;;;;;;5059751;28;19927;-11
2023/05/31 04:28:29;;;;;;;;;;;18.90;54.50;;;;;;5055598;28;19925;-11
2023/05/31 04:30:56;;;;;;;;;;;18.90;54.50;;;;;;5022000;28;20285;-11
2023/05/31 04:33:22;;;;;;;;;;;18.90;54.40;;;;;;5039166;28;19936;-11
2023/05/31 04:35:50;;;;;;;;;;;19.00;54.50;;;;;;5021877;28;19909;-11
2023/05/31 04:38:16;;;;;;;;;;;19.00;54.50;;;;;;5053069;28;20194;-11
2023/05/31 04:40:42;;;;;;;;;;;19.00;54.50;;;;;;5022615;28;19936;-11
2023/05/31 04:43:08;;;;;;;;;;;19.00;54.40;;;;;;5038944;28;19916;-11
2023/05/31 04:45:36;;;;;;;;;;;19.00;54.40;;;;;;5055351;28;20185;-11
2023/05/31 04:48:02;;;;;;;;;;;19.10;54.50;;;;;;5021491;28;20337;-11
2023/05/31 04:50:28;;;;;;;;;;;19.10;54.40;;;;;;5038838;28;19909;-11
2023/05/31 04:52:53;;;;;;;;;;;19.10;54.40;;;;;;5055276;28;19909;-11
2023/05/31 04:55:22;;;;;;;;;;;19.10;54.30;;;;;;5054916;28;19909;-9
2023/05/31 04:57:48;;;;;;;;;;;19.20;54.30;;;;;;5021857;28;19913;-9
2023/05/31 05:02:39;;;;;;;;;;;19.30;54.20;;;;;;5029590;22;19929;-10
2023/05/31 05:05:06;;;;;;;;;;;19.30;54.20;;;;;;5037348;28;19939;-10
2023/05/31 05:07:32;;;;;;;;;;;19.30;54.10;;;;;;5021099;28;20264;-10
2023/05/31 05:09:58;;;;;;;;;;;19.40;54.10;;;;;;5037987;28;20413;-10
2023/05/31 05:12:24;;;;;;;;;;;19.40;54.00;;;;;;5038125;28;19920;-10
2023/05/31 05:14:49;;;;;;;;;;;19.40;54.00;;;;;;5037861;28;19910;-10
2023/05/31 05:17:15;;;;;;;;;;;19.50;54.00;;;;;;5037858;28;20047;-10
2023/05/31 05:19:48;;;;;;;;;;;19.50;53.90;;;;;;5037408;28;19983;-10
2023/05/31 05:22:14;;;;;;;;;;;19.60;53.90;;;;;;5037999;28;20209;-10
2023/05/31 05:24:39;;;;;;;;;;;19.60;53.80;;;;;;5037565;28;19917;-11
2023/05/31 05:27:06;;;;;;;;;;;19.70;53.90;;;;;;5036640;28;19913;-11
2023/05/31 05:29:40;;;;;;;;;;;19.70;53.80;;;;;;5019767;28;19909;-11
2023/05/31 05:32:06;;;;;;;;;;;19.80;53.80;;;;;;5037372;28;19971;-10
2023/05/31 05:34:32;;;;;;;;;;;19.80;53.80;;;;;;5019218;28;20194;-11
2023/05/31 05:36:58;;;;;;;;;;;19.90;53.80;;;;;;5037651;28;19909;-11
2023/05/31 05:39:29;;;;;;;;;;;19.90;54.00;;;;;;5019129;28;19917;-11
2023/05/31 05:41:54;;;;;;;;;;;20.00;53.70;;;;;;5017762;28;20107;-11
2023/05/31 05:44:20;;;;;;;;;;;20.10;53.60;;;;;;5018646;28;20337;-11
2023/05/31 05:46:46;;;;;;;;;;;20.20;53.50;;;;;;5036692;28;19921;-11
2023/05/31 05:49:18;;;;;;;;;;;20.30;53.40;;;;;;5018595;28;19943;-11
2023/05/31 05:51:43;;;;;;;;;;;20.40;53.30;;;;;;5018684;28;19920;-11
2023/05/31 05:54:09;;;;;;;;;;;20.50;53.10;;;;;;5035713;28;19909;-11
2023/05/31 05:56:35;;;;;;;;;;;20.60;52.90;;;;;;5036877;28;20282;-11
2023/05/31 05:59:00;;;;;;;;;;;20.70;52.80;;;;;;5037334;28;19976;-11
2023/05/31 06:01:26;;;;;;;;;;;20.80;52.70;;;;;;5058819;23;19928;-11
2023/05/31 06:03:52;;;;;;;;;;;20.90;52.60;;;;;;5067731;28;19967;-11
2023/05/31 06:06:18;;;;;;;;;;;21.10;52.50;;;;;;5066520;28;19915;-11
2023/05/31 06:08:45;;;;;;;;;;;21.20;52.50;;;;;;5063448;28;19908;-11
2023/05/31 06:11:11;;;;;;;;;;;21.20;52.40;;;;;;5065027;28;20364;-11
2023/05/31 06:13:36;;;;;;;;;;;21.30;52.30;;;;;;5046904;28;20035;-11
2023/05/31 06:16:05;;;;;;;;;;;21.40;52.20;;;;;;5064328;28;19908;-11
2023/05/31 06:18:33;;;;;;;;;;;21.50;52.20;;;;;;5064204;28;19913;-11
2023/05/31 06:20:58;;;;;;;;;;;21.60;52.20;;;;;;5063728;28;20162;-11
2023/05/31 06:23:24;;;;;;;;;;;21.70;52.10;;;;;;5046437;28;19916;-11
2023/05/31 06:25:51;;;;;;;;;;;21.80;52.10;;;;;;5045982;28;20079;-11
2023/05/31 06:28:16;;;;;;;;;;;21.80;52.10;;;;;;5064827;28;19931;-11
2023/05/31 06:30:42;;;;;;;;;;;21.90;52.00;;;;;;5064262;28;20072;-11
2023/05/31 06:33:08;;;;;;;;;;;22.00;52.00;;;;;;5063652;28;20205;-11
2023/05/31 06:35:33;;;;;;;;;;;22.10;51.80;;;;;;5047679;28;19938;-11
2023/05/31 06:37:59;;;;;;;;;;;22.20;51.80;;;;;;5049139;28;19919;-11
2023/05/31 06:40:25;;;;;;;;;;;22.30;51.70;;;;;;5066147;28;19974;-11
2023/05/31 06:42:50;;;;;;;;;;;22.40;51.50;;;;;;5048661;28;20101;-11
2023/05/31 06:45:16;;;;;;;;;;;22.50;51.50;;;;;;5066217;28;20261;-11
2023/05/31 06:47:42;;;;;;;;;;;22.60;51.40;;;;;;5067048;28;19931;-11
2023/05/31 06:50:09;;;;;;;;;;;22.80;51.40;;;;;;5067220;28;19908;-11
2023/05/31 06:52:35;;;;;;;;;;;22.90;51.20;;;;;;5052518;28;19909;-11
2023/05/31 06:55:00;;;;;;;;;;;23.10;51.10;;;;;;5074254;28;20138;-11
2023/05/31 06:57:26;;;;;;;;;;;23.30;50.90;;;;;;5074894;28;19915;-11
2023/05/31 06:59:52;;;;;;;;;;;23.60;50.70;;;;;;5074798;28;20002;-11
2023/05/31 07:02:17;;;;;;;;;;;23.80;50.40;;;;;;5074825;28;19999;-11
2023/05/31 07:04:43;;;;;;;;;;;24.10;50.20;;;;;;5074815;28;19915;-11
2023/05/31 07:07:12;;;;;;;;;;;24.40;50.00;;;;;;5056386;28;19915;-11
2023/05/31 07:09:38;;;;;;;;;;;24.70;49.50;;;;;;5073060;28;20166;-11
2023/05/31 07:12:03;;;;;;;;;;;25.10;49.10;;;;;;5055162;28;19908;-11
2023/05/31 07:14:29;;;;;;;;;;;25.50;48.70;;;;;;5073398;28;20045;-11
2023/05/31 07:16:55;;;;;;;;;;;25.80;48.40;;;;;;5055348;28;20156;-11
2023/05/31 07:19:20;;;;;;;;;;;26.20;48.10;;;;;;5054692;28;20023;-11
2023/05/31 07:21:46;;;;;;;;;;;26.50;47.90;;;;;;5074510;28;20130;-11
2023/05/31 07:24:12;;;;;;;;;;;26.70;47.50;;;;;;5074366;28;19936;-11
2023/05/31 07:26:37;;;;;;;;;;;27.00;47.50;;;;;;5072400;28;19913;-11
2023/05/31 07:29:03;;;;;;;;;;;27.20;47.10;;;;;;5071507;28;19915;-11
2023/05/31 07:31:28;;;;;;;;;;;27.50;47.00;;;;;;5052682;28;19917;-11
2023/05/31 07:33:55;;;;;;;;;;;27.70;46.70;;;;;;5053822;28;19908;-11
2023/05/31 07:36:24;;;;;;;;;;;27.90;46.50;;;;;;5070445;28;19908;-11
2023/05/31 07:38:50;;;;;;;;;;;28.10;46.40;;;;;;5068804;28;19912;-11
2023/05/31 07:41:15;;;;;;;;;;;28.30;46.10;;;;;;5051454;28;19908;-11
2023/05/31 07:43:43;;;;;;;;;;;28.50;46.10;;;;;;5068931;28;20326;-11
2023/05/31 07:46:08;;;;;;;;;;;28.70;45.90;;;;;;5070439;28;19908;-11
2023/05/31 07:48:34;;;;;;;;;;;28.90;45.80;;;;;;5073316;28;20407;-11
2023/05/31 07:51:00;;;;;;;;;;;29.00;45.60;;;;;;5071388;28;20007;-11
2023/05/31 07:53:25;;;;;;;;;;;29.10;45.50;;;;;;5070489;28;19908;-11
2023/05/31 07:55:51;;;;;;;;;;;29.30;45.80;;;;;;5070548;28;19909;-11
2023/05/31 07:58:16;;;;;;;;;;;29.40;45.20;;;;;;5050254;28;19985;-11
2023/05/31 08:00:42;;;;;;;;;;;29.60;45.20;;;;;;5049779;28;19995;-11
2023/05/31 08:03:08;;;;;;;;;;;29.70;45.00;;;;;;5051946;28;20088;-11
2023/05/31 08:05:33;;;;;;;;;;;29.90;45.00;;;;;;5066894;28;19935;-12
2023/05/31 08:08:00;;;;;;;;;;;30.00;44.80;;;;;;5066995;28;19916;-12
2023/05/31 08:10:25;;;;;;;;;;;30.20;44.80;;;;;;5067166;28;20080;-12
2023/05/31 08:12:51;;;;;;;;;;;30.30;44.60;;;;;;5067863;28;19909;-12
2023/05/31 08:15:17;;;;;;;;;;;30.50;44.40;;;;;;5067106;28;20145;-12
2023/05/31 08:17:43;;;;;;;;;;;30.70;44.40;;;;;;5049711;28;20176;-12
2023/05/31 08:20:10;;;;;;;;;;;30.80;44.20;;;;;;5066110;28;20281;-12
2023/05/31 08:22:36;;;;;;;;;;;31.00;44.20;;;;;;5066116;28;20215;-12
2023/05/31 08:25:01;;;;;;;;;;;31.20;44.10;;;;;;5064819;28;19995;-12
2023/05/31 08:27:28;;;;;;;;;;;31.30;43.90;;;;;;5063364;28;19968;-12
2023/05/31 08:29:53;;;;;;;;;;;31.50;43.90;;;;;;5065431;28;19985;-12
2023/05/31 08:32:20;;;;;;;;;;;31.60;43.70;;;;;;5065930;28;19908;-12
2023/05/31 08:34:46;;;;;;;;;;;31.70;43.60;;;;;;5065652;28;20180;-12
2023/05/31 08:37:12;;;;;;;;;;;31.80;43.50;;;;;;5064677;28;20253;-12
2023/05/31 08:39:37;;;;;;;;;;;31.90;43.40;;;;;;5064259;28;20220;-12
2023/05/31 08:42:05;;;;;;;;;;;32.00;43.30;;;;;;5065635;28;19916;-12
2023/05/31 08:44:31;;;;;;;;;;;32.20;43.30;;;;;;5065426;28;20040;-12
2023/05/31 08:46:57;;;;;;;;;;;32.30;43.30;;;;;;5048666;28;20457;-10
2023/05/31 08:49:23;;;;;;;;;;;32.40;43.20;;;;;;5063877;28;19909;-10
2023/05/31 08:51:49;;;;;;;;;;;32.50;43.10;;;;;;5067253;28;20044;-10
2023/05/31 08:54:16;;;;;;;;;;;32.50;43.10;;;;;;5065964;28;19939;-11
2023/05/31 08:56:43;;;;;;;;;;;32.60;42.90;;;;;;5066266;28;20150;-11
2023/05/31 08:59:09;;;;;;;;;;;32.70;43.00;;;;;;5065270;28;19912;-11
2023/05/31 09:01:35;;;;;;;;;;;32.80;42.90;;;;;;5047845;28;20107;-11
2023/05/31 09:04:01;;;;;;;;;;;32.80;42.90;;;;;;5065699;28;20232;-11
2023/05/31 09:06:27;;;;;;;;;;;32.80;42.90;;;;;;5064807;28;19931;-12
2023/05/31 09:08:53;;;;;;;;;;;32.80;42.90;;;;;;5047692;28;19935;-11
2023/05/31 09:11:18;;;;;;;;;;;32.80;43.00;;;;;;5066190;28;20181;-11
2023/05/31 09:13:44;;;;;;;;;;;32.70;43.00;;;;;;5069061;28;19909;-12
2023/05/31 09:16:13;;;;;;;;;;;32.60;43.10;;;;;;5066223;28;19909;-11
2023/05/31 09:18:39;;;;;;;;;;;32.50;43.10;;;;;;5066803;28;19913;-11
2023/05/31 09:21:09;;;;;;;;;;;32.40;43.20;;;;;;5048564;28;19999;-11
2023/05/31 09:23:35;;;;;;;;;;;32.20;43.40;;;;;;5065150;28;20151;-11
2023/05/31 09:26:05;;;;;;;;;;;31.90;43.50;;;;;;5047215;28;19940;-11
2023/05/31 09:28:30;;;;;;;;;;;31.60;43.60;;;;;;5063814;28;19908;-11
2023/05/31 09:31:06;;;;;;;;;;;31.20;43.90;;;;;;5064142;28;20017;-11
2023/05/31 09:33:36;;;;;;;;;;;30.70;44.10;;;;;;5064538;28;20293;-11
2023/05/31 09:36:02;;;;;;;;;;;30.40;44.40;;;;;;5061864;28;19943;-11
2023/05/31 09:38:31;;;;;;;;;;;30.00;44.70;;;;;;5061367;28;20159;-11
2023/05/31 09:40:56;;;;;;;;;;;29.70;44.90;;;;;;5063990;28;19908;-11
2023/05/31 09:43:22;;;;;;;;;;;29.50;45.10;;;;;;5046206;28;19919;-11
2023/05/31 09:45:47;;;;;;;;;;;29.30;45.30;;;;;;5044176;28;20007;-11
2023/05/31 09:48:13;;;;;;;;;;;29.10;45.40;;;;;;5063831;28;19999;-11
2023/05/31 09:50:39;;;;;;;;;;;29.00;45.60;;;;;;5065214;28;19995;-11
2023/05/31 09:53:04;;;;;;;;;;;28.90;45.70;;;;;;5047857;28;19908;-11
2023/05/31 09:55:42;;;;;;;;;;;28.80;45.70;;;;;;5046456;28;19920;-11
2023/05/31 09:58:07;;;;;;;;;;;28.70;45.90;;;;;;5062611;28;19965;-11
2023/05/31 10:00:33;;;;;;;;;;;28.60;46.00;;;;;;5062770;28;20160;-11
2023/05/31 10:02:59;;;;;;;;;;;28.60;46.00;;;;;;5063698;28;20168;-11
2023/05/31 10:05:25;;;;;;;;;;;28.50;46.10;;;;;;5063527;28;20117;-11
2023/05/31 10:07:51;;;;;;;;;;;28.40;46.20;;;;;;5061799;28;19912;-11
2023/05/31 10:10:20;;;;;;;;;;;28.40;46.30;;;;;;5059713;28;20002;-11
2023/05/31 10:12:51;;;;;;;;;;;28.30;46.40;;;;;;5043699;28;20075;-11
2023/05/31 10:15:23;;;;;;;;;;;28.30;46.50;;;;;;5059112;28;20264;-11
2023/05/31 10:18:01;;;;;;;;;;;28.20;46.90;;;;;;5060581;28;20254;-11
2023/05/31 10:20:38;;;;;;;;;;;28.10;46.40;;;;;;5061768;28;20146;-11
2023/05/31 10:23:07;;;;;;;;;;;28.10;46.50;;;;;;5062101;28;19917;-11
2023/05/31 10:25:49;;;;;;;;;;;28.00;46.60;;;;;;5043456;28;19920;-11
2023/05/31 10:28:17;;;;;;;;;;;27.90;46.60;;;;;;5061455;28;19959;-11
2023/05/31 10:30:43;;;;;;;;;;;27.80;46.60;;;;;;5062262;28;19909;-11
2023/05/31 10:33:13;;;;;;;;;;;27.80;46.70;;;;;;5046004;28;20139;-11
2023/05/31 10:35:39;;;;;;;;;;;27.70;46.80;;;;;;5063739;28;19927;-11
2023/05/31 10:38:05;;;;;;;;;;;27.60;46.80;;;;;;5045632;28;19935;-11
2023/05/31 10:40:33;;;;;;;;;;;27.60;46.80;;;;;;5046177;28;19944;-21
2023/05/31 10:43:02;;;;;;;;;;;27.50;46.90;;;;;;5064698;28;19948;-11
2023/05/31 10:45:33;;;;;;;;;;;27.40;47.00;;;;;;5062570;28;19920;-11
2023/05/31 10:48:01;;;;;;;;;;;27.30;47.00;;;;;;5064189;28;19912;-11
2023/05/31 10:50:27;;;;;;;;;;;27.30;46.80;;;;;;5061031;28;19973;-11
2023/05/31 10:53:07;;;;;;;;;;;27.20;46.70;;;;;;5062672;28;20371;-11
2023/05/31 10:55:39;;;;;;;;;;;27.20;46.70;;;;;;5062303;28;19909;-11
2023/05/31 10:58:05;;;;;;;;;;;27.20;47.00;;;;;;5043016;28;19908;-11
2023/05/31 11:00:31;;;;;;;;;;;27.10;47.10;;;;;;5062793;28;19908;-11
2023/05/31 11:02:58;;;;;;;;;;;27.00;47.00;;;;;;5061614;28;19935;-11
2023/05/31 11:05:27;;;;;;;;;;;27.00;47.20;;;;;;5064355;28;20309;-11
2023/05/31 11:07:54;;;;;;;;;;;26.90;46.80;;;;;;5063550;28;19982;-11
2023/05/31 11:10:31;;;;;;;;;;;26.90;46.60;;;;;;5060837;28;19946;-11
2023/05/31 11:13:01;;;;;;;;;;;26.80;47.10;;;;;;5045066;28;19919;-11
2023/05/31 11:15:40;;;;;;;;;;;26.80;47.20;;;;;;5061409;28;19908;-11
2023/05/31 11:18:09;;;;;;;;;;;26.80;47.10;;;;;;5043920;28;20442;-11
2023/05/31 11:20:36;;;;;;;;;;;26.70;47.30;;;;;;5063202;28;20081;-11
2023/05/31 11:23:16;;;;;;;;;;;26.70;47.50;;;;;;5044484;28;19977;-11
2023/05/31 11:25:42;;;;;;;;;;;26.60;47.50;;;;;;5060796;28;19912;-11
2023/05/31 11:28:08;;;;;;;;;;;26.60;47.40;;;;;;5062390;28;19913;-11
2023/05/31 11:30:37;;;;;;;;;;;26.60;47.30;;;;;;5061221;28;20503;-11
2023/05/31 11:33:12;;;;;;;;;;;26.50;47.10;;;;;;5061416;28;19908;-11
2023/05/31 11:35:38;;;;;;;;;;;26.50;47.20;;;;;;5043714;28;19970;-11
2023/05/31 11:38:04;;;;;;;;;;;26.40;46.50;;;;;;5061285;28;20266;-11
2023/05/31 11:40:31;;;;;;;;;;;26.40;46.60;;;;;;5045514;28;19913;-11
2023/05/31 11:43:04;;;;;;;;;;;26.30;46.60;;;;;;5063213;28;20309;-11
2023/05/31 11:45:31;;;;;;;;;;;26.30;46.50;;;;;;5063597;28;20101;-11
2023/05/31 11:48:08;;;;;;;;;;;26.20;46.40;;;;;;5065064;28;19908;-11
2023/05/31 11:50:34;;;;;;;;;;;26.20;46.60;;;;;;5066914;28;19943;-11
2023/05/31 11:53:04;;;;;;;;;;;26.20;46.60;;;;;;5047246;28;20366;-11
2023/05/31 11:55:33;;;;;;;;;;;26.10;46.60;;;;;;5046002;28;20189;-11
2023/05/31 11:57:59;;;;;;;;;;;26.00;46.50;;;;;;5065720;28;19908;-11
2023/05/31 12:00:24;;;;;;;;;;;26.00;46.50;;;;;;5065233;28;20186;-11
2023/05/31 12:02:51;;;;;;;;;;;26.00;46.70;;;;;;5048140;28;19913;-11
2023/05/31 12:05:17;;;;;;;;;;;26.00;46.60;;;;;;5048789;28;20042;-11
2023/05/31 12:07:43;;;;;;;;;;;25.90;46.60;;;;;;5065390;28;19975;-11
2023/05/31 12:10:09;;;;;;;;;;;25.90;46.80;;;;;;5066804;28;20099;-11
2023/05/31 12:12:35;;;;;;;;;;;25.90;46.80;;;;;;5048598;28;19909;-11
2023/05/31 12:15:03;;;;;;;;;;;25.90;46.80;;;;;;5045897;28;20149;-11
2023/05/31 12:17:33;;;;;;;;;;;25.80;46.90;;;;;;5063347;28;19908;-11
2023/05/31 12:20:00;;;;;;;;;;;25.80;47.10;;;;;;5063777;28;19912;-11
2023/05/31 12:22:26;;;;;;;;;;;25.80;47.10;;;;;;5047053;28;19908;-11
2023/05/31 12:24:53;;;;;;;;;;;25.80;47.00;;;;;;5065877;28;19919;-11
2023/05/31 12:27:20;;;;;;;;;;;25.70;47.00;;;;;;5065573;28;19909;-11
2023/05/31 12:29:45;;;;;;;;;;;25.70;47.30;;;;;;5064098;28;19944;-11
2023/05/31 12:32:11;;;;;;;;;;;25.70;47.40;;;;;;5065280;28;19990;-11
2023/05/31 12:34:37;;;;;;;;;;;25.70;47.50;;;;;;5064700;28;19909;-11
2023/05/31 12:37:08;;;;;;;;;;;25.70;47.60;;;;;;5045698;28;19916;-11
2023/05/31 12:39:34;;;;;;;;;;;25.70;47.60;;;;;;5063808;28;20115;-11
2023/05/31 12:42:00;;;;;;;;;;;25.60;47.70;;;;;;5063084;28;19919;-11
2023/05/31 12:44:26;;;;;;;;;;;25.60;47.70;;;;;;5063681;28;20115;-11
2023/05/31 12:46:57;;;;;;;;;;;25.60;47.50;;;;;;5062668;28;20193;-11
2023/05/31 12:49:24;;;;;;;;;;;25.60;47.80;;;;;;5065162;28;19909;-11
2023/05/31 12:51:56;;;;;;;;;;;25.60;47.90;;;;;;5062797;28;20133;-11
2023/05/31 12:54:24;;;;;;;;;;;25.60;48.00;;;;;;5065396;28;20285;-11
2023/05/31 12:56:50;;;;;;;;;;;25.60;48.00;;;;;;5065313;28;19963;-11
2023/05/31 12:59:15;;;;;;;;;;;25.60;48.00;;;;;;5064368;28;20031;-11
2023/05/31 13:01:41;;;;;;;;;;;25.60;48.10;;;;;;5046612;28;20196;-11
2023/05/31 13:04:09;;;;;;;;;;;25.60;48.20;;;;;;5044809;28;20182;-11
2023/05/31 13:06:35;;;;;;;;;;;25.60;48.20;;;;;;5047325;28;20011;-11
2023/05/31 13:09:04;;;;;;;;;;;25.60;48.20;;;;;;5045349;28;20312;-11
2023/05/31 13:11:31;;;;;;;;;;;25.60;48.30;;;;;;5060074;28;20241;-11
2023/05/31 13:13:56;;;;;;;;;;;25.60;48.30;;;;;;5044354;28;20136;-11
2023/05/31 13:16:23;;;;;;;;;;;25.50;48.30;;;;;;5062071;28;20393;-11
2023/05/31 13:18:49;;;;;;;;;;;25.60;48.30;;;;;;5061487;28;20244;-11
2023/05/31 13:21:15;;;;;;;;;;;25.50;48.30;;;;;;5064371;28;20255;-11
2023/05/31 13:23:40;;;;;;;;;;;25.50;48.70;;;;;;5064067;28;20365;-11
2023/05/31 13:26:06;;;;;;;;;;;25.50;48.40;;;;;;5064614;28;20036;-11
2023/05/31 13:28:32;;;;;;;;;;;25.50;48.50;;;;;;5065026;28;19916;-11
2023/05/31 13:30:57;;;;;;;;;;;25.50;48.50;;;;;;5062405;28;19923;-11
2023/05/31 13:33:26;;;;;;;;;;;25.50;48.50;;;;;;5044070;28;19931;-11
2023/05/31 13:35:52;;;;;;;;;;;25.50;48.40;;;;;;5046549;28;20055;-11
2023/05/31 13:38:18;;;;;;;;;;;25.50;48.20;;;;;;5064195;28;20190;-11
2023/05/31 13:40:43;;;;;;;;;;;25.50;48.40;;;;;;5044507;28;20167;-11
2023/05/31 13:43:09;;;;;;;;;;;25.40;48.20;;;;;;5063401;28;20285;-11
2023/05/31 13:45:34;;;;;;;;;;;25.40;48.20;;;;;;5063183;28;20111;-11
2023/05/31 13:48:00;;;;;;;;;;;25.50;48.30;;;;;;5064800;28;20189;-11
2023/05/31 13:50:25;;;;;;;;;;;25.40;48.40;;;;;;5065462;28;19985;-11
2023/05/31 13:52:53;;;;;;;;;;;25.50;48.30;;;;;;5066043;28;19920;-11
2023/05/31 13:55:20;;;;;;;;;;;25.50;48.30;;;;;;5049910;28;19912;-11
2023/05/31 13:57:45;;;;;;;;;;;25.50;48.50;;;;;;5065495;28;20252;-11
2023/05/31 14:00:11;;;;;;;;;;;25.50;48.50;;;;;;5046916;28;20201;-11
2023/05/31 14:02:40;;;;;;;;;;;25.50;48.50;;;;;;5063327;28;19916;-11
2023/05/31 14:05:06;;;;;;;;;;;25.50;48.60;;;;;;5065720;28;19908;-11
2023/05/31 14:07:31;;;;;;;;;;;25.40;48.30;;;;;;5066377;28;19936;-11
2023/05/31 14:09:57;;;;;;;;;;;25.50;48.40;;;;;;5064812;28;20059;-11
2023/05/31 14:12:24;;;;;;;;;;;25.50;48.50;;;;;;5047529;28;19909;-11
2023/05/31 14:14:50;;;;;;;;;;;25.50;48.30;;;;;;5061818;28;19920;-11
2023/05/31 14:17:15;;;;;;;;;;;25.50;48.50;;;;;;5045592;28;20121;-11
2023/05/31 14:19:42;;;;;;;;;;;25.50;48.50;;;;;;5060255;28;19912;-11